Time;durP1;ratioP1;P1;durP2;ratioP2;P2;SDS_P1;SDS_P2;PMS_P1;PMS_P2;Temp;Humidity;BMP_temperature;BMP_pressure;BME280_temperature;BME280_humidity;BME280_pressure;Samples;Min_cycle;Max_cycle;Signal;HPM_P1;HPM_P2
2024/01/27 00:01:22;;;;;;;11.27;2.60;;;3.10;99.90;;;;;;5031383;28;20508;-84
2024/01/27 00:03:48;;;;;;;16.93;2.57;;;3.20;99.90;;;;;;5032225;28;20374;-84
2024/01/27 00:06:15;;;;;;;14.43;3.50;;;3.00;99.90;;;;;;5031596;28;20501;-84
2024/01/27 00:08:40;;;;;;;14.03;2.70;;;3.00;99.90;;;;;;5032775;28;20034;-84
2024/01/27 00:11:07;;;;;;;9.43;2.50;;;3.00;99.90;;;;;;5036457;28;20025;-84
2024/01/27 00:13:35;;;;;;;10.30;2.67;;;3.00;99.90;;;;;;5036783;28;20018;-84
2024/01/27 00:16:01;;;;;;;16.60;2.93;;;2.90;99.90;;;;;;5036490;28;20055;-84
2024/01/27 00:18:26;;;;;;;11.83;2.83;;;2.90;99.90;;;;;;5036564;28;20041;-84
2024/01/27 00:20:52;;;;;;;15.30;3.17;;;3.10;99.90;;;;;;5036284;28;20036;-83
2024/01/27 00:23:18;;;;;;;11.17;2.17;;;2.90;99.90;;;;;;5035096;28;20025;-84
2024/01/27 00:25:43;;;;;;;9.13;2.60;;;3.00;99.90;;;;;;5035346;28;20021;-84
2024/01/27 00:28:09;;;;;;;11.70;2.97;;;2.90;99.90;;;;;;5036222;28;20030;-84
2024/01/27 00:30:35;;;;;;;18.60;3.30;;;2.90;99.90;;;;;;5035019;28;20064;-84
2024/01/27 00:33:01;;;;;;;10.57;2.60;;;2.80;99.90;;;;;;5036062;28;20467;-83
2024/01/27 00:35:28;;;;;;;12.30;2.97;;;2.90;99.90;;;;;;5036027;28;20049;-84
2024/01/27 00:37:54;;;;;;;14.70;2.73;;;2.90;99.90;;;;;;5034901;28;20535;-84
2024/01/27 00:40:20;;;;;;;11.93;3.17;;;2.80;99.90;;;;;;5034760;28;20030;-84
2024/01/27 00:42:45;;;;;;;13.77;2.50;;;2.90;99.90;;;;;;5035062;28;20108;-84
2024/01/27 00:45:11;;;;;;;16.10;3.30;;;2.90;99.90;;;;;;5034664;28;20029;-84
2024/01/27 00:47:36;;;;;;;10.57;2.80;;;2.90;99.90;;;;;;5034729;28;20509;-83
2024/01/27 00:50:02;;;;;;;14.17;2.47;;;2.80;99.90;;;;;;5035879;28;20034;-83
2024/01/27 00:52:29;;;;;;;14.50;2.70;;;2.80;99.90;;;;;;5035644;28;20068;-84
2024/01/27 00:54:55;;;;;;;11.33;2.20;;;2.80;99.90;;;;;;5034698;28;20691;-83
2024/01/27 00:57:21;;;;;;;16.77;2.67;;;2.80;99.90;;;;;;5035922;28;20104;-83
2024/01/27 00:59:46;;;;;;;12.47;2.80;;;2.80;99.90;;;;;;5034429;28;20025;-84
2024/01/27 01:02:12;;;;;;;10.30;2.57;;;2.80;99.90;;;;;;5034691;28;20025;-83
2024/01/27 01:04:38;;;;;;;11.40;2.80;;;2.80;99.90;;;;;;5035648;28;20420;-83
2024/01/27 01:07:03;;;;;;;12.63;2.10;;;2.80;99.90;;;;;;5035936;28;20028;-84
2024/01/27 01:09:29;;;;;;;15.40;2.93;;;2.80;99.90;;;;;;5035623;28;20033;-84
2024/01/27 01:11:55;;;;;;;17.07;2.80;;;2.70;99.90;;;;;;5035334;28;20125;-84
2024/01/27 01:14:20;;;;;;;13.27;2.47;;;2.80;99.90;;;;;;5034350;28;20103;-84
2024/01/27 01:16:46;;;;;;;12.23;2.37;;;2.70;99.90;;;;;;5035545;28;20072;-84
2024/01/27 01:19:12;;;;;;;14.97;2.37;;;2.70;99.90;;;;;;5034985;28;20041;-84
2024/01/27 01:21:38;;;;;;;7.50;1.93;;;2.70;99.90;;;;;;5034470;28;20097;-83
2024/01/27 01:24:03;;;;;;;12.73;2.57;;;2.70;99.90;;;;;;5034236;28;20045;-84
2024/01/27 01:26:29;;;;;;;8.30;2.73;;;2.70;99.90;;;;;;5035126;28;20057;-84
2024/01/27 01:28:55;;;;;;;15.00;2.77;;;2.70;99.90;;;;;;5035296;28;20026;-84
2024/01/27 01:31:20;;;;;;;12.67;2.23;;;2.70;99.90;;;;;;5035103;28;20048;-83
2024/01/27 01:33:46;;;;;;;10.67;2.50;;;2.70;99.90;;;;;;5034950;28;20065;-83
2024/01/27 01:36:12;;;;;;;15.20;2.87;;;2.60;99.90;;;;;;5034954;28;20025;-83
2024/01/27 01:38:37;;;;;;;14.40;2.70;;;2.70;99.90;;;;;;5033915;28;20076;-84
2024/01/27 01:41:03;;;;;;;18.27;2.70;;;2.70;99.90;;;;;;5033968;28;20033;-83
2024/01/27 01:43:29;;;;;;;16.57;2.40;;;2.60;99.90;;;;;;5035217;28;20034;-83
2024/01/27 01:45:54;;;;;;;12.60;2.20;;;2.60;99.90;;;;;;5035498;28;20101;-84
2024/01/27 01:48:20;;;;;;;12.30;2.17;;;2.80;99.90;;;;;;5034317;28;20363;-83
2024/01/27 01:50:48;;;;;;;8.37;2.43;;;2.60;99.90;;;;;;5017082;28;20028;-84
2024/01/27 01:53:14;;;;;;;10.77;2.40;;;2.60;99.90;;;;;;5033666;28;20017;-83
2024/01/27 01:55:40;;;;;;;11.27;3.10;;;2.70;99.90;;;;;;5034551;28;20490;-83
2024/01/27 01:58:06;;;;;;;14.73;2.77;;;2.60;99.90;;;;;;5034675;28;20154;-83
2024/01/27 02:00:32;;;;;;;13.30;2.13;;;2.70;99.90;;;;;;5033790;28;20108;-83
2024/01/27 02:02:58;;;;;;;11.27;2.73;;;2.50;99.90;;;;;;5033569;28;20113;-83
2024/01/27 02:05:24;;;;;;;12.77;2.50;;;2.60;99.90;;;;;;5033725;28;20036;-84
2024/01/27 02:07:50;;;;;;;13.77;3.10;;;2.60;99.90;;;;;;5034491;28;20029;-84
2024/01/27 02:10:17;;;;;;;16.07;2.87;;;2.60;99.90;;;;;;5034550;28;20404;-83
2024/01/27 02:12:44;;;;;;;16.50;3.27;;;2.60;99.90;;;;;;5034457;28;20021;-83
2024/01/27 02:15:12;;;;;;;11.10;2.57;;;2.60;99.90;;;;;;5032838;28;20120;-84
2024/01/27 02:17:39;;;;;;;8.47;2.70;;;2.70;99.90;;;;;;5034879;28;20425;-84
2024/01/27 02:20:06;;;;;;;15.97;3.17;;;2.50;99.90;;;;;;5034473;28;20025;-84
2024/01/27 02:22:35;;;;;;;12.63;3.00;;;2.60;99.90;;;;;;5032901;28;20021;-83
2024/01/27 02:25:04;;;;;;;9.67;2.70;;;2.60;99.90;;;;;;5033143;28;20018;-84
2024/01/27 02:27:29;;;;;;;10.07;2.73;;;2.50;99.90;;;;;;5032967;28;20029;-84
2024/01/27 02:29:55;;;;;;;16.60;3.60;;;2.70;99.90;;;;;;5032733;28;20075;-83
2024/01/27 02:32:21;;;;;;;11.63;2.87;;;2.50;99.90;;;;;;5033834;28;20587;-83
2024/01/27 02:34:46;;;;;;;9.50;2.90;;;2.50;99.90;;;;;;5034186;28;20103;-84
2024/01/27 02:37:12;;;;;;;13.07;2.87;;;2.50;99.90;;;;;;5032446;28;20482;-83
2024/01/27 02:39:40;;;;;;;12.77;2.97;;;2.40;99.90;;;;;;5033715;28;20036;-82
2024/01/27 02:42:06;;;;;;;12.20;3.07;;;2.50;99.90;;;;;;5032486;28;20025;-83
2024/01/27 02:44:31;;;;;;;12.13;2.90;;;2.50;99.90;;;;;;5033906;28;20025;-83
2024/01/27 02:46:57;;;;;;;14.03;2.93;;;2.50;99.90;;;;;;5033558;28;20528;-83
2024/01/27 02:49:23;;;;;;;11.47;2.87;;;2.40;99.90;;;;;;5032370;28;20503;-83
2024/01/27 02:51:49;;;;;;;12.33;2.80;;;2.40;99.90;;;;;;5033580;28;20032;-83
2024/01/27 02:54:15;;;;;;;8.10;2.80;;;2.40;99.90;;;;;;5033527;28;20470;-82
2024/01/27 02:56:40;;;;;;;17.93;3.23;;;2.40;99.90;;;;;;5033525;28;20083;-83
2024/01/27 02:59:06;;;;;;;11.00;3.60;;;2.40;99.90;;;;;;5032298;28;20029;-83
2024/01/27 03:01:32;;;;;;;11.67;3.03;;;2.50;99.90;;;;;;5033514;28;20033;-83
2024/01/27 03:03:57;;;;;;;13.63;4.23;;;2.40;99.90;;;;;;5033731;28;20021;-83
2024/01/27 03:06:23;;;;;;;11.27;2.97;;;2.40;99.90;;;;;;5032946;28;20040;-83
2024/01/27 03:08:49;;;;;;;18.67;3.53;;;2.50;99.90;;;;;;5033307;28;20025;-82
2024/01/27 03:11:15;;;;;;;14.37;4.17;;;2.40;99.90;;;;;;5033343;28;20021;-83
2024/01/27 03:13:44;;;;;;;11.00;2.77;;;2.40;99.90;;;;;;5033299;28;20076;-84
2024/01/27 03:16:10;;;;;;;11.10;3.50;;;2.40;99.90;;;;;;5033260;28;20121;-84
2024/01/27 03:18:37;;;;;;;12.80;3.70;;;2.30;99.90;;;;;;5033118;28;20477;-83
2024/01/27 03:21:03;;;;;;;14.47;2.70;;;2.30;99.90;;;;;;5033234;28;20032;-83
2024/01/27 03:23:30;;;;;;;12.17;3.23;;;2.30;99.90;;;;;;5033187;28;20104;-83
2024/01/27 03:25:55;;;;;;;11.07;3.23;;;2.30;99.90;;;;;;5033588;28;20041;-84
2024/01/27 03:28:22;;;;;;;10.53;3.03;;;2.30;99.90;;;;;;5032633;28;20439;-84
2024/01/27 03:30:51;;;;;;;13.63;2.97;;;2.30;99.90;;;;;;5033548;28;20049;-84
2024/01/27 03:33:17;;;;;;;13.73;2.70;;;2.30;99.90;;;;;;5033127;28;20084;-83
2024/01/27 03:35:43;;;;;;;15.67;3.00;;;2.30;99.90;;;;;;5031749;28;20049;-83
2024/01/27 03:38:09;;;;;;;14.80;3.33;;;2.20;99.90;;;;;;5032730;28;20524;-84
2024/01/27 03:40:36;;;;;;;16.07;4.10;;;2.20;99.90;;;;;;5031906;28;20030;-84
2024/01/27 03:43:01;;;;;;;11.17;3.27;;;2.20;99.90;;;;;;5032982;28;20037;-83
2024/01/27 03:45:27;;;;;;;12.90;3.33;;;2.20;99.90;;;;;;5030960;28;20026;-83
2024/01/27 03:47:54;;;;;;;10.67;3.20;;;2.20;99.90;;;;;;5030934;28;20052;-84
2024/01/27 03:50:20;;;;;;;8.93;2.57;;;2.20;99.90;;;;;;5031864;28;20021;-83
2024/01/27 03:52:45;;;;;;;12.77;3.17;;;2.20;99.90;;;;;;5032891;28;20075;-83
2024/01/27 03:55:11;;;;;;;11.93;3.17;;;2.20;99.90;;;;;;5031624;28;20397;-83
2024/01/27 03:57:37;;;;;;;14.27;3.50;;;2.20;99.90;;;;;;5033077;28;20067;-83
2024/01/27 04:00:04;;;;;;;13.90;3.33;;;2.20;99.90;;;;;;5031375;28;20022;-83
2024/01/27 04:02:29;;;;;;;11.93;3.47;;;2.10;99.90;;;;;;5031738;28;20381;-83
2024/01/27 04:04:55;;;;;;;14.53;3.57;;;2.20;99.90;;;;;;5031593;28;20022;-83
2024/01/27 04:07:21;;;;;;;12.63;3.73;;;2.20;99.90;;;;;;5032778;28;20104;-83
2024/01/27 04:09:47;;;;;;;11.13;4.37;;;2.00;99.90;;;;;;5032714;28;20452;-83
2024/01/27 04:12:13;;;;;;;19.97;4.90;;;2.10;99.90;;;;;;5032664;28;20025;-83
2024/01/27 04:14:40;;;;;;;14.93;4.13;;;2.10;99.90;;;;;;5031446;28;20108;-83
2024/01/27 04:17:06;;;;;;;10.40;4.03;;;2.10;99.90;;;;;;5031522;28;20024;-83
2024/01/27 04:19:31;;;;;;;13.60;4.07;;;2.10;99.90;;;;;;5032690;28;20029;-84
2024/01/27 04:21:57;;;;;;;12.30;4.63;;;2.00;99.90;;;;;;5032344;28;20040;-83
2024/01/27 04:24:23;;;;;;;11.80;4.33;;;2.00;99.90;;;;;;5031618;28;20108;-83
2024/01/27 04:26:49;;;;;;;11.83;4.33;;;2.00;99.90;;;;;;5031014;28;20036;-83
2024/01/27 04:29:15;;;;;;;15.70;4.67;;;2.00;99.90;;;;;;5032348;28;20076;-84
2024/01/27 04:31:41;;;;;;;11.00;4.80;;;2.00;99.90;;;;;;5030803;28;20444;-84
2024/01/27 04:34:07;;;;;;;15.67;5.47;;;2.00;99.90;;;;;;5031285;28;20080;-84
2024/01/27 04:36:33;;;;;;;13.80;5.30;;;2.00;99.90;;;;;;5032480;28;20044;-84
2024/01/27 04:38:59;;;;;;;11.53;4.93;;;2.00;99.90;;;;;;5031497;28;20026;-83
2024/01/27 04:41:24;;;;;;;14.43;5.03;;;2.00;99.90;;;;;;5030916;28;20026;-83
2024/01/27 04:43:51;;;;;;;19.47;4.73;;;2.00;99.90;;;;;;5030914;28;20030;-83
2024/01/27 04:46:16;;;;;;;18.27;5.63;;;1.90;99.90;;;;;;5031128;28;20559;-84
2024/01/27 04:48:43;;;;;;;14.57;5.53;;;1.90;99.90;;;;;;5032147;28;20068;-84
2024/01/27 04:51:09;;;;;;;20.43;5.80;;;1.90;99.90;;;;;;5031145;28;20169;-83
2024/01/27 04:53:36;;;;;;;18.27;5.50;;;1.80;99.90;;;;;;5031213;28;20537;-83
2024/01/27 04:56:07;;;;;;;16.20;5.20;;;1.90;99.90;;;;;;5031250;28;20022;-84
2024/01/27 04:58:34;;;;;;;19.17;5.77;;;1.90;99.90;;;;;;5036263;28;20055;-84
2024/01/27 05:01:01;;;;;;;17.37;6.87;;;1.90;99.90;;;;;;5034225;28;20390;-83
2024/01/27 05:03:26;;;;;;;18.17;6.23;;;1.90;99.90;;;;;;5035809;28;20080;-83
2024/01/27 05:05:54;;;;;;;15.77;6.40;;;2.00;99.90;;;;;;5027052;28;20018;-84
2024/01/27 05:08:19;;;;;;;13.87;5.77;;;1.90;99.90;;;;;;5015058;28;20101;-84
2024/01/27 05:10:45;;;;;;;20.27;6.87;;;1.80;99.90;;;;;;5015613;28;20072;-83
2024/01/27 05:13:11;;;;;;;14.90;5.90;;;1.90;99.90;;;;;;5015557;28;20385;-84
2024/01/27 05:15:37;;;;;;;17.07;6.57;;;1.80;99.90;;;;;;5014588;28;20433;-84
2024/01/27 05:18:03;;;;;;;21.73;7.03;;;1.80;99.90;;;;;;5031086;28;20034;-84
2024/01/27 05:20:29;;;;;;;13.30;5.40;;;1.80;99.90;;;;;;5014562;28;20084;-84
2024/01/27 05:22:55;;;;;;;17.47;6.73;;;1.80;99.90;;;;;;5015801;28;20088;-84
2024/01/27 05:25:21;;;;;;;18.03;6.80;;;1.70;99.90;;;;;;5014495;28;20061;-84
2024/01/27 05:27:47;;;;;;;15.03;7.50;;;1.80;99.90;;;;;;5015745;28;20449;-84
2024/01/27 05:30:13;;;;;;;14.10;6.73;;;1.80;99.90;;;;;;5015583;28;20157;-84
2024/01/27 05:32:38;;;;;;;17.23;6.77;;;1.70;99.90;;;;;;5015394;28;20152;-83
2024/01/27 05:35:05;;;;;;;15.70;6.87;;;1.70;99.90;;;;;;5014154;28;20026;-84
2024/01/27 05:37:30;;;;;;;19.33;6.80;;;1.70;99.90;;;;;;5013500;28;20029;-84
2024/01/27 05:39:56;;;;;;;19.40;7.50;;;1.70;99.90;;;;;;5013983;28;20025;-84
2024/01/27 05:42:22;;;;;;;27.13;7.57;;;1.70;99.90;;;;;;5015440;28;20352;-84
2024/01/27 05:44:47;;;;;;;19.57;6.70;;;1.60;99.90;;;;;;5015467;28;20104;-84
2024/01/27 05:47:13;;;;;;;17.23;7.20;;;1.60;99.90;;;;;;5013457;28;20029;-84
2024/01/27 05:49:39;;;;;;;17.87;6.60;;;1.60;99.90;;;;;;5015130;28;20041;-84
2024/01/27 05:52:05;;;;;;;19.30;7.40;;;1.60;99.90;;;;;;5013864;28;20437;-84
2024/01/27 05:54:32;;;;;;;18.77;7.27;;;1.60;99.90;;;;;;5015186;28;20032;-84
2024/01/27 05:56:59;;;;;;;17.77;6.83;;;1.60;99.90;;;;;;5013764;28;20021;-84
2024/01/27 05:59:24;;;;;;;16.50;7.27;;;1.70;99.90;;;;;;5014976;28;20044;-84
2024/01/27 06:01:51;;;;;;;19.90;7.73;;;1.50;99.90;;;;;;5015244;28;20467;-83
2024/01/27 06:04:17;;;;;;;17.20;8.13;;;1.60;99.90;;;;;;5014957;28;20104;-83
2024/01/27 06:06:43;;;;;;;22.20;9.50;;;1.50;99.90;;;;;;5014925;28;20028;-84
2024/01/27 06:09:11;;;;;;;20.63;7.77;;;1.60;99.90;;;;;;5014188;28;20441;-84
2024/01/27 06:11:39;;;;;;;19.73;8.10;;;1.60;99.90;;;;;;5029976;28;20060;-84
2024/01/27 06:14:06;;;;;;;19.87;7.97;;;1.60;99.90;;;;;;5013718;28;20406;-84
2024/01/27 06:16:32;;;;;;;19.30;7.73;;;1.50;99.90;;;;;;5014788;28;20109;-84
2024/01/27 06:18:57;;;;;;;16.13;7.27;;;1.50;99.90;;;;;;5013670;28;20438;-84
2024/01/27 06:21:23;;;;;;;21.40;7.77;;;1.50;99.90;;;;;;5016616;28;20036;-84
2024/01/27 06:23:49;;;;;;;20.43;8.77;;;1.50;99.90;;;;;;5020466;28;20022;-86
2024/01/27 06:26:15;;;;;;;18.40;8.10;;;1.50;99.90;;;;;;5034436;28;20033;-84
2024/01/27 06:28:41;;;;;;;21.70;8.03;;;1.50;99.90;;;;;;5032905;28;20370;-84
2024/01/27 06:31:07;;;;;;;24.20;8.83;;;1.50;99.90;;;;;;5032673;28;20167;-84
2024/01/27 06:33:35;;;;;;;17.83;7.77;;;1.50;99.90;;;;;;5033892;28;20053;-84
2024/01/27 06:36:01;;;;;;;20.50;7.83;;;1.50;99.90;;;;;;5032707;28;20029;-84
2024/01/27 06:38:27;;;;;;;20.37;8.37;;;1.50;99.90;;;;;;5032972;28;20041;-84
2024/01/27 06:40:53;;;;;;;17.70;7.80;;;1.40;99.90;;;;;;5032877;28;20025;-84
2024/01/27 06:43:19;;;;;;;18.20;7.90;;;1.50;99.90;;;;;;5032599;28;20028;-84
2024/01/27 06:45:47;;;;;;;19.93;8.13;;;1.40;99.90;;;;;;5033793;28;20038;-84
2024/01/27 06:48:13;;;;;;;21.90;7.97;;;1.50;99.90;;;;;;5033397;28;20391;-84
2024/01/27 06:50:40;;;;;;;13.90;6.83;;;1.40;99.90;;;;;;5032488;28;20543;-84
2024/01/27 06:53:07;;;;;;;15.47;7.57;;;1.40;99.90;;;;;;5033755;28;20033;-84
2024/01/27 06:55:33;;;;;;;21.47;8.67;;;1.40;99.90;;;;;;5032458;28;20030;-84
2024/01/27 06:57:59;;;;;;;21.70;8.47;;;1.40;99.90;;;;;;5032513;28;20493;-83
2024/01/27 07:00:24;;;;;;;19.57;8.57;;;1.40;99.90;;;;;;5032361;28;20033;-84
2024/01/27 07:02:50;;;;;;;21.30;8.87;;;1.40;99.90;;;;;;5033706;28;20029;-84
2024/01/27 07:05:15;;;;;;;24.43;9.67;;;1.40;99.90;;;;;;5031966;28;20017;-84
2024/01/27 07:07:42;;;;;;;24.87;9.03;;;1.40;99.90;;;;;;5032325;28;20025;-83
2024/01/27 07:10:08;;;;;;;18.83;8.57;;;1.40;99.90;;;;;;5032172;28;20112;-84
2024/01/27 07:12:34;;;;;;;16.80;8.33;;;1.40;99.90;;;;;;5032284;28;20026;-83
2024/01/27 07:15:00;;;;;;;18.80;8.70;;;1.30;99.90;;;;;;5031913;28;20024;-84
2024/01/27 07:17:29;;;;;;;20.63;8.63;;;1.30;99.90;;;;;;5033577;28;20496;-83
2024/01/27 07:19:55;;;;;;;16.30;8.30;;;1.30;99.90;;;;;;5031126;28;20022;-84
2024/01/27 07:22:22;;;;;;;20.03;9.23;;;1.40;99.90;;;;;;5031978;28;20355;-83
2024/01/27 07:24:50;;;;;;;21.30;9.00;;;1.40;99.90;;;;;;5033295;28;20508;-84
2024/01/27 07:27:17;;;;;;;21.80;9.33;;;1.30;99.90;;;;;;5032086;28;20063;-84
2024/01/27 07:29:42;;;;;;;24.17;10.17;;;1.30;99.90;;;;;;5032122;28;20049;-85
2024/01/27 07:32:13;;;;;;;25.50;9.40;;;1.30;99.90;;;;;;5033167;28;20478;-85
2024/01/27 07:34:42;;;;;;;18.93;9.17;;;1.40;99.90;;;;;;5032547;28;20042;-85
2024/01/27 07:37:09;;;;;;;22.17;9.63;;;1.30;99.90;;;;;;5033331;28;20048;-85
2024/01/27 07:39:35;;;;;;;20.27;10.30;;;1.30;99.90;;;;;;5022723;28;20474;-85
2024/01/27 07:42:01;;;;;;;18.97;9.40;;;1.30;99.90;;;;;;5013789;28;20022;-85
2024/01/27 07:44:27;;;;;;;22.83;10.53;;;1.40;99.90;;;;;;5013830;28;20029;-86
2024/01/27 07:46:52;;;;;;;18.73;9.93;;;1.40;99.90;;;;;;5018627;28;20088;-82
2024/01/27 07:49:18;;;;;;;24.67;10.63;;;1.40;99.90;;;;;;5018694;28;20026;-82
2024/01/27 07:51:44;;;;;;;26.83;9.70;;;1.40;99.90;;;;;;5029171;28;20112;-82
2024/01/27 07:54:10;;;;;;;19.00;9.73;;;1.50;99.90;;;;;;5031512;28;20477;-82
2024/01/27 07:56:37;;;;;;;18.77;9.33;;;1.50;99.90;;;;;;5032666;28;20029;-81
2024/01/27 07:59:03;;;;;;;17.57;10.07;;;1.50;99.90;;;;;;5032793;28;20037;-82
2024/01/27 08:01:29;;;;;;;22.03;10.03;;;1.60;99.90;;;;;;5031200;28;20048;-82
2024/01/27 08:03:54;;;;;;;19.37;10.70;;;1.60;99.90;;;;;;5032832;28;20478;-82
2024/01/27 08:06:28;;;;;;;22.73;10.93;;;1.60;99.90;;;;;;5032756;28;20078;-82
2024/01/27 08:08:54;;;;;;;18.58;9.18;;;1.70;99.90;;;;;;5031193;28;20026;-82
2024/01/27 08:11:19;;;;;;;24.30;10.30;;;1.70;99.90;;;;;;5031355;28;20028;-82
2024/01/27 08:13:45;;;;;;;23.13;11.43;;;1.80;99.90;;;;;;5032680;28;20369;-82
2024/01/27 08:16:12;;;;;;;23.63;9.97;;;1.70;99.90;;;;;;5031253;28;20037;-82
2024/01/27 08:18:45;;;;;;;21.27;10.00;;;1.80;99.90;;;;;;5032154;28;20041;-82
2024/01/27 08:21:13;;;;;;;19.63;9.80;;;1.80;99.90;;;;;;5029497;28;20042;-82
2024/01/27 08:23:39;;;;;;;24.63;10.33;;;1.80;99.90;;;;;;5020564;28;20021;-82
2024/01/27 08:26:05;;;;;;;22.40;10.00;;;1.80;99.90;;;;;;5018926;28;20075;-82
2024/01/27 08:28:30;;;;;;;21.37;11.00;;;2.00;99.90;;;;;;5013204;28;20033;-82
2024/01/27 08:30:56;;;;;;;18.37;9.73;;;1.90;99.90;;;;;;5012725;28;20532;-83
2024/01/27 08:33:22;;;;;;;17.77;9.70;;;2.00;99.90;;;;;;5016107;28;20042;-82
2024/01/27 08:35:51;;;;;;;20.70;10.03;;;2.00;99.90;;;;;;5016559;28;20105;-82
2024/01/27 08:38:17;;;;;;;18.87;10.13;;;2.10;99.90;;;;;;5014891;28;20018;-82
2024/01/27 08:40:43;;;;;;;20.00;10.23;;;2.10;99.90;;;;;;5016458;28;20455;-82
2024/01/27 08:43:10;;;;;;;21.67;10.70;;;2.20;99.90;;;;;;5014910;28;20034;-82
2024/01/27 08:45:37;;;;;;;23.30;10.63;;;2.20;99.90;;;;;;5015052;28;20490;-82
2024/01/27 08:48:03;;;;;;;19.10;9.07;;;2.30;99.90;;;;;;5015788;28;20121;-82
2024/01/27 08:50:29;;;;;;;20.77;10.83;;;2.30;99.90;;;;;;5015859;28;20109;-81
2024/01/27 08:52:54;;;;;;;20.03;9.37;;;2.40;99.90;;;;;;5016220;28;20117;-82
2024/01/27 08:55:23;;;;;;;21.77;10.93;;;2.40;99.90;;;;;;5016140;28;20034;-82
2024/01/27 08:57:49;;;;;;;17.90;10.87;;;2.50;99.90;;;;;;5016240;28;20025;-81
2024/01/27 09:00:16;;;;;;;22.27;11.17;;;2.50;99.90;;;;;;5014857;28;20064;-82
2024/01/27 09:02:42;;;;;;;21.43;10.33;;;2.60;99.90;;;;;;5015658;28;20493;-82
2024/01/27 09:05:08;;;;;;;20.50;10.40;;;2.60;99.90;;;;;;5015936;28;20436;-81
2024/01/27 09:07:34;;;;;;;20.60;10.13;;;2.80;99.90;;;;;;5016061;28;20113;-82
2024/01/27 09:10:00;;;;;;;19.20;10.77;;;2.80;99.90;;;;;;5015670;28;20478;-82
2024/01/27 09:12:25;;;;;;;19.80;10.53;;;2.80;99.90;;;;;;5014231;28;20108;-82
2024/01/27 09:14:51;;;;;;;17.33;9.23;;;2.90;99.90;;;;;;5015692;28;20034;-83
2024/01/27 09:17:17;;;;;;;26.23;10.47;;;3.00;99.90;;;;;;5014333;28;20022;-82
2024/01/27 09:19:42;;;;;;;22.13;10.87;;;3.10;99.90;;;;;;5015625;28;20076;-81
2024/01/27 09:22:08;;;;;;;22.57;10.73;;;3.10;99.90;;;;;;5022934;28;20378;-81
2024/01/27 09:24:34;;;;;;;20.57;10.83;;;3.30;99.90;;;;;;5023882;28;20048;-81
2024/01/27 09:26:59;;;;;;;22.10;11.13;;;3.40;99.90;;;;;;5025422;28;20044;-81
2024/01/27 09:29:25;;;;;;;20.67;11.47;;;3.40;99.90;;;;;;5024944;28;20092;-81
2024/01/27 09:31:51;;;;;;;26.20;10.83;;;3.50;99.90;;;;;;5023598;28;20612;-82
2024/01/27 09:34:16;;;;;;;24.77;11.63;;;3.50;99.90;;;;;;5025246;28;20046;-81
2024/01/27 09:36:42;;;;;;;18.53;11.03;;;3.60;99.90;;;;;;5024344;28;20037;-82
2024/01/27 09:39:08;;;;;;;19.73;10.07;;;3.70;99.90;;;;;;5024073;28;20026;-82
2024/01/27 09:41:33;;;;;;;26.77;10.10;;;3.70;99.90;;;;;;5024403;28;20393;-82
2024/01/27 09:44:03;;;;;;;18.73;9.77;;;3.80;99.90;;;;;;5023198;28;20022;-81
2024/01/27 09:46:30;;;;;;;19.97;9.93;;;3.80;99.90;;;;;;5022078;28;20017;-82
2024/01/27 09:48:56;;;;;;;20.83;10.60;;;3.90;99.90;;;;;;5025775;28;20025;-81
2024/01/27 09:51:22;;;;;;;23.63;11.00;;;4.10;99.90;;;;;;5025541;28;20048;-81
2024/01/27 09:53:51;;;;;;;20.67;11.27;;;4.30;99.90;;;;;;5022845;28;20021;-82
2024/01/27 09:56:20;;;;;;;18.77;9.43;;;4.60;99.90;;;;;;5013456;28;20026;-81
2024/01/27 09:58:49;;;;;;;22.60;8.73;;;4.90;99.90;;;;;;5014951;28;20037;-82
2024/01/27 10:01:17;;;;;;;14.77;7.80;;;5.30;99.90;;;;;;5014635;28;20024;-82
2024/01/27 10:03:43;;;;;;;17.03;7.43;;;5.70;99.90;;;;;;5014713;28;20141;-82
2024/01/27 10:06:09;;;;;;;14.60;6.70;;;6.30;99.90;;;;;;5013954;28;20339;-82
2024/01/27 10:08:36;;;;;;;14.37;5.50;;;6.90;99.90;;;;;;5026501;28;20446;-82
2024/01/27 10:11:07;;;;;;;14.32;4.97;;;7.60;99.90;;;;;;5024509;28;20024;-82
2024/01/27 10:13:33;;;;;;;13.55;5.28;;;8.40;99.90;;;;;;5022423;28;20021;-83
2024/01/27 10:16:07;;;;;;;11.75;4.97;;;9.10;99.90;;;;;;5025040;28;20052;-82
2024/01/27 10:18:34;;;;;;;10.70;3.97;;;9.80;99.90;;;;;;5022753;28;20037;-83
2024/01/27 10:21:00;;;;;;;13.10;4.50;;;10.40;99.90;;;;;;5031656;28;20032;-82
2024/01/27 10:23:26;;;;;;;10.55;3.70;;;11.00;99.90;;;;;;5029924;28;20528;-81
2024/01/27 10:25:53;;;;;;;10.32;3.67;;;11.60;99.90;;;;;;5023768;28;20024;-81
2024/01/27 10:28:19;;;;;;;13.68;4.68;;;12.10;99.90;;;;;;5023054;28;20022;-82
2024/01/27 10:30:45;;;;;;;10.80;3.65;;;12.60;99.90;;;;;;5024612;28;20018;-81
2024/01/27 10:33:14;;;;;;;15.85;4.45;;;12.90;99.90;;;;;;5022808;28;20386;-82
2024/01/27 10:35:43;;;;;;;12.52;3.67;;;13.30;99.90;;;;;;5031158;28;20030;-83
2024/01/27 10:38:09;;;;;;;14.50;4.82;;;13.70;99.90;;;;;;5032814;28;20018;-82
2024/01/27 10:40:38;;;;;;;12.45;4.30;;;13.90;99.90;;;;;;5033873;28;20116;-82
2024/01/27 10:43:05;;;;;;;11.77;4.20;;;14.00;99.90;;;;;;5034389;28;20029;-81
2024/01/27 10:45:36;;;;;;;10.93;4.30;;;14.00;99.90;;;;;;5032321;28;20033;-82
2024/01/27 10:48:03;;;;;;;16.20;4.93;;;14.20;99.90;;;;;;5033296;28;20034;-82
2024/01/27 10:50:30;;;;;;;11.52;4.75;;;14.30;99.90;;;;;;5033996;28;20022;-82
2024/01/27 10:52:58;;;;;;;10.77;4.47;;;14.20;99.30;;;;;;5033748;28;20377;-82
2024/01/27 10:55:25;;;;;;;9.88;3.97;;;14.10;98.70;;;;;;5032463;28;20091;-82
2024/01/27 10:57:54;;;;;;;13.48;5.20;;;14.00;97.60;;;;;;5033119;28;20030;-82
2024/01/27 11:00:19;;;;;;;11.93;4.88;;;13.80;94.80;;;;;;5014119;28;20106;-80
2024/01/27 11:02:46;;;;;;;14.10;3.80;;;13.60;93.90;;;;;;5013582;28;20545;-82
2024/01/27 11:05:13;;;;;;;12.60;3.85;;;13.60;93.50;;;;;;5032920;28;20032;-82
2024/01/27 11:07:41;;;;;;;11.45;4.45;;;13.50;92.40;;;;;;5029059;28;20455;-82
2024/01/27 11:10:07;;;;;;;10.20;4.20;;;13.60;92.10;;;;;;5023182;28;20108;-81
2024/01/27 11:12:34;;;;;;;14.13;4.90;;;13.70;91.80;;;;;;5023661;28;20049;-82
2024/01/27 11:15:00;;;;;;;11.63;4.13;;;14.00;91.60;;;;;;5033623;28;20028;-83
2024/01/27 11:17:26;;;;;;;11.20;3.97;;;14.40;91.30;;;;;;5033131;28;20096;-83
2024/01/27 11:19:53;;;;;;;12.68;4.75;;;14.90;90.30;;;;;;5033532;28;20439;-82
2024/01/27 11:22:26;;;;;;;10.75;3.83;;;15.10;87.30;;;;;;5033118;28;20036;-83
2024/01/27 11:25:13;;;;;;;11.85;4.50;;;15.30;86.60;;;;;;5032179;28;20052;-82
2024/01/27 11:27:39;;;;;;;12.02;3.88;;;15.60;85.40;;;;;;5031459;28;20044;-82
2024/01/27 11:30:07;;;;;;;11.52;4.43;;;15.60;85.20;;;;;;5033462;28;20116;-82
2024/01/27 11:32:32;;;;;;;12.07;3.60;;;15.70;83.80;;;;;;5033796;28;20031;-82
2024/01/27 11:35:02;;;;;;;11.05;4.10;;;15.80;81.80;;;;;;5031674;28;20041;-82
2024/01/27 11:37:30;;;;;;;11.07;4.25;;;15.90;81.20;;;;;;5034345;28;20452;-82
2024/01/27 11:40:06;;;;;;;9.90;3.90;;;15.90;80.80;;;;;;5031437;28;20120;-83
2024/01/27 11:42:31;;;;;;;12.38;4.03;;;16.10;80.00;;;;;;5033541;28;20018;-83
2024/01/27 11:44:57;;;;;;;12.02;4.18;;;16.20;78.70;;;;;;5032094;28;20044;-83
2024/01/27 11:47:23;;;;;;;13.30;3.67;;;16.20;77.50;;;;;;5032914;28;20477;-83
2024/01/27 11:49:53;;;;;;;12.45;4.22;;;16.20;74.80;;;;;;5031483;28;20028;-82
2024/01/27 11:52:20;;;;;;;9.02;3.20;;;15.80;72.80;;;;;;5032761;28;20025;-82
2024/01/27 11:54:45;;;;;;;12.52;4.28;;;15.60;73.60;;;;;;5032017;28;20025;-82
2024/01/27 11:57:11;;;;;;;11.15;4.50;;;15.50;72.10;;;;;;5033098;28;20409;-82
2024/01/27 11:59:36;;;;;;;16.25;4.30;;;15.30;71.70;;;;;;5033863;28;20108;-83
2024/01/27 12:02:03;;;;;;;10.07;3.78;;;15.20;71.70;;;;;;5022475;28;20049;-82
2024/01/27 12:04:29;;;;;;;12.77;4.32;;;15.20;71.80;;;;;;5022322;28;20425;-83
2024/01/27 12:06:55;;;;;;;11.68;4.03;;;15.30;71.40;;;;;;5025363;28;20014;-83
2024/01/27 12:09:22;;;;;;;12.38;3.80;;;15.40;71.30;;;;;;5025967;28;20031;-83
2024/01/27 12:11:47;;;;;;;10.77;3.75;;;15.40;69.40;;;;;;5026733;28;20097;-84
2024/01/27 12:14:13;;;;;;;11.73;2.88;;;15.50;69.80;;;;;;5026508;28;20072;-85
2024/01/27 12:16:39;;;;;;;10.70;3.42;;;15.70;69.50;;;;;;5026583;28;20113;-83
2024/01/27 12:19:05;;;;;;;12.93;3.42;;;15.80;68.60;;;;;;5023563;28;20041;-84
2024/01/27 12:21:30;;;;;;;11.52;4.43;;;15.90;67.00;;;;;;5026831;28;20033;-84
2024/01/27 12:23:57;;;;;;;11.50;3.05;;;16.00;67.20;;;;;;5024565;28;20022;-85
2024/01/27 12:26:25;;;;;;;11.50;3.55;;;16.30;68.10;;;;;;5023819;28;21221;-84
2024/01/27 12:28:52;;;;;;;11.02;3.40;;;16.70;67.70;;;;;;5024465;28;20080;-84
2024/01/27 12:31:22;;;;;;;9.73;2.60;;;17.00;67.00;;;;;;5015125;28;20080;-82
2024/01/27 12:33:53;;;;;;;12.52;3.30;;;17.30;66.70;;;;;;5015883;28;20053;-85
2024/01/27 12:36:20;;;;;;;9.55;3.78;;;17.70;66.50;;;;;;5016491;28;20026;-83
2024/01/27 12:39:00;;;;;;;11.23;2.60;;;18.10;64.80;;;;;;5014968;28;20464;-84